createdAt,value
2019-04-29T00:02:40.491Z,1.63
2019-04-29T00:07:44.571Z,1.83
2019-04-29T00:12:48.670Z,1.50
2019-04-29T00:17:56.896Z,1.83
2019-04-29T00:23:01.396Z,1.60
2019-04-29T00:28:06.034Z,1.70
2019-04-29T00:33:10.107Z,1.57
2019-04-29T00:38:23.091Z,1.40
2019-04-29T00:43:49.931Z,1.70
2019-04-29T00:48:54.062Z,1.50
2019-04-29T00:54:03.032Z,1.23
2019-04-29T00:59:06.979Z,1.57
2019-04-29T01:04:12.609Z,1.90
2019-04-29T01:09:18.539Z,1.70
2019-04-29T01:14:23.089Z,1.50
2019-04-29T01:19:27.503Z,1.37
2019-04-29T01:24:32.063Z,1.60
2019-04-29T01:29:36.166Z,1.50
2019-04-29T01:34:50.411Z,1.70
2019-04-29T01:40:02.939Z,1.57
2019-04-29T01:45:07.846Z,1.60
2019-04-29T01:50:11.904Z,1.70
2019-04-29T01:55:15.907Z,1.70
2019-04-29T02:00:22.455Z,1.47
2019-04-29T02:05:26.953Z,1.90
2019-04-29T02:10:33.772Z,1.50
2019-04-29T02:15:38.127Z,1.73
2019-04-29T02:20:42.057Z,1.70
2019-04-29T02:25:47.106Z,1.53
2019-04-29T02:30:53.091Z,1.70
2019-04-29T02:35:58.004Z,1.30
2019-04-29T02:41:10.908Z,1.50
2019-04-29T02:46:14.843Z,1.40
2019-04-29T02:51:38.306Z,1.60
2019-04-29T02:56:45.280Z,1.80
2019-04-29T03:02:06.779Z,3.50
2019-04-29T03:07:11.464Z,1.80
2019-04-29T03:12:15.584Z,1.70
2019-04-29T03:17:21.069Z,1.80
2019-04-29T03:22:25.895Z,2.20
2019-04-29T03:27:30.363Z,1.80
2019-04-29T03:32:34.368Z,3.90
2019-04-29T03:37:38.342Z,4.90
2019-04-29T03:42:42.208Z,2.57
2019-04-29T03:47:46.203Z,1.77
2019-04-29T03:52:50.613Z,2.03
2019-04-29T03:57:55.092Z,2.50
2019-04-29T04:03:26.794Z,1.90
2019-04-29T04:08:34.841Z,1.90
2019-04-29T04:13:39.574Z,2.60
2019-04-29T04:18:44.785Z,2.43
2019-04-29T04:23:48.974Z,3.97
2019-04-29T04:28:53.319Z,5.07
2019-04-29T04:34:03.426Z,6.03
2019-04-29T04:39:09.114Z,2.57
2019-04-29T04:44:14.020Z,6.07
2019-04-29T04:49:18.394Z,2.80
2019-04-29T04:54:22.873Z,9.33
2019-04-29T04:59:27.464Z,9.43
2019-04-29T05:04:35.543Z,7.13
2019-04-29T05:09:40.558Z,5.13
2019-04-29T05:14:45.143Z,7.70
2019-04-29T05:19:49.111Z,7.43
2019-04-29T05:24:53.769Z,3.97
2019-04-29T05:29:58.190Z,7.07
2019-04-29T05:35:04.549Z,5.40
2019-04-29T05:40:09.163Z,7.23
2019-04-29T05:45:31.343Z,6.23
2019-04-29T05:50:52.199Z,7.37
2019-04-29T05:55:54.258Z,6.43
2019-04-29T06:01:02.978Z,7.83
2019-04-29T06:06:07.528Z,7.67
2019-04-29T06:11:12.066Z,7.67
2019-04-29T06:16:20.908Z,8.97
2019-04-29T06:21:32.918Z,7.80
2019-04-29T06:26:37.406Z,7.80
2019-04-29T06:31:41.908Z,5.50
2019-04-29T06:36:46.456Z,7.47
2019-04-29T06:41:55.340Z,5.73
2019-04-29T06:47:00.654Z,8.73
2019-04-29T06:52:05.435Z,9.87
2019-04-29T06:57:09.859Z,11.00
2019-04-29T07:02:15.950Z,10.90
2019-04-29T07:07:20.752Z,11.93
2019-04-29T07:12:25.311Z,7.70
2019-04-29T07:17:31.592Z,8.33
2019-04-29T07:22:36.131Z,6.97
2019-04-29T07:27:44.243Z,6.83
2019-04-29T07:32:49.865Z,11.93
2019-04-29T07:37:54.682Z,11.57
2019-04-29T07:43:02.890Z,11.77
2019-04-29T07:48:06.755Z,6.53
2019-04-29T07:53:12.420Z,8.70
2019-04-29T07:58:16.914Z,11.50
2019-04-29T08:03:21.496Z,10.57
2019-04-29T08:08:27.411Z,12.57
2019-04-29T08:13:32.941Z,10.00
2019-04-29T08:18:37.598Z,13.67
2019-04-29T08:23:42.452Z,8.73
2019-04-29T08:28:47.300Z,15.33
2019-04-29T08:33:51.899Z,9.27
2019-04-29T08:39:07.936Z,11.83
2019-04-29T08:44:20.657Z,11.50
2019-04-29T08:49:25.294Z,9.13
2019-04-29T08:54:29.171Z,8.77
2019-04-29T08:59:48.214Z,8.77
2019-04-29T09:04:53.766Z,7.53
2019-04-29T09:10:03.445Z,6.73
2019-04-29T09:15:07.119Z,6.33
2019-04-29T09:20:11.897Z,6.17
2019-04-29T09:25:37.094Z,5.33
2019-04-29T09:30:41.151Z,6.03
2019-04-29T09:35:45.132Z,5.40
2019-04-29T09:40:59.599Z,6.27
2019-04-29T09:46:04.695Z,6.47
2019-04-29T09:51:17.368Z,9.70
2019-04-29T09:56:14.153Z,9.10
2019-04-29T10:01:28.813Z,9.90
2019-04-29T10:06:34.984Z,8.37
2019-04-29T10:11:39.567Z,7.83
2019-04-29T10:17:06.167Z,7.63
2019-04-29T10:22:10.400Z,8.13
2019-04-29T10:27:14.389Z,6.70
2019-04-29T10:32:18.471Z,7.63
2019-04-29T10:37:23.784Z,8.07
2019-04-29T10:42:33.923Z,7.13
2019-04-29T10:47:56.804Z,5.43
2019-04-29T10:53:01.596Z,7.00
2019-04-29T10:58:06.421Z,6.13
2019-04-29T11:03:11.260Z,5.27
2019-04-29T11:08:38.041Z,6.83
2019-04-29T11:13:48.125Z,5.43
2019-04-29T11:18:46.162Z,7.37
2019-04-29T11:24:07.992Z,6.10
2019-04-29T11:29:12.694Z,5.70
2019-04-29T11:34:29.678Z,4.03
2019-04-29T11:39:33.803Z,5.50
2019-04-29T11:44:38.670Z,6.10
2019-04-29T11:49:49.439Z,5.00
2019-04-29T11:54:53.492Z,4.30
2019-04-29T12:00:10.280Z,4.57
2019-04-29T12:05:40.226Z,4.70
2019-04-29T12:10:52.097Z,4.47
2019-04-29T12:16:02.591Z,5.20
2019-04-29T12:21:26.254Z,3.90
2019-04-29T12:26:35.657Z,4.57
2019-04-29T12:32:02.387Z,5.03
2019-04-29T12:37:15.306Z,4.37
2019-04-29T12:42:40.331Z,4.70
2019-04-29T12:47:43.697Z,4.53
2019-04-29T12:53:00.965Z,4.90
2019-04-29T12:58:05.936Z,4.53
2019-04-29T13:03:30.907Z,3.80
2019-04-29T13:08:40.511Z,3.70
2019-04-29T13:13:46.626Z,3.77
2019-04-29T13:19:12.429Z,5.20
2019-04-29T13:24:22.451Z,4.63
2019-04-29T13:29:37.424Z,4.73
2019-04-29T13:34:43.797Z,3.53
2019-04-29T13:39:47.876Z,4.10
2019-04-29T13:45:09.461Z,4.90
2019-04-29T13:50:20.113Z,3.87
2019-04-29T13:55:17.850Z,4.00
2019-04-29T14:00:40.050Z,3.00
2019-04-29T14:05:45.104Z,3.83
2019-04-29T14:10:51.094Z,2.93
2019-04-29T14:15:54.894Z,2.70
2019-04-29T14:20:59.446Z,3.30
2019-04-29T14:26:04.134Z,2.97
2019-04-29T14:31:08.679Z,3.00
2019-04-29T14:36:13.202Z,2.87
2019-04-29T14:41:19.275Z,2.77
2019-04-29T14:46:38.320Z,2.87
2019-04-29T14:51:43.178Z,2.63
2019-04-29T14:56:47.759Z,2.83
2019-04-29T15:02:17.058Z,2.40
2019-04-29T15:07:21.860Z,2.70
2019-04-29T15:12:51.882Z,2.67
2019-04-29T15:18:01.341Z,2.57
2019-04-29T15:23:06.139Z,2.53
2019-04-29T15:28:10.934Z,2.50
2019-04-29T15:33:15.611Z,2.00
2019-04-29T15:38:20.158Z,1.77
2019-04-29T15:43:45.812Z,2.00
2019-04-29T15:48:30.573Z,1.93
2019-04-29T15:53:37.831Z,1.67
2019-04-29T15:58:41.339Z,2.00
2019-04-29T16:03:50.015Z,2.40
2019-04-29T16:09:17.420Z,2.03
2019-04-29T16:14:23.573Z,2.03
2019-04-29T16:19:28.001Z,2.30
2019-04-29T16:24:38.134Z,2.00
2019-04-29T16:29:38.831Z,2.10
2019-04-29T16:34:45.152Z,2.50
2019-04-29T16:39:52.752Z,2.57
2019-04-29T16:44:54.370Z,2.00
2019-04-29T16:50:04.815Z,2.20
2019-04-29T16:55:05.979Z,1.70
2019-04-29T17:00:13.824Z,2.93
2019-04-29T17:05:37.064Z,2.30
2019-04-29T17:10:54.342Z,2.70
2019-04-29T17:16:02.591Z,2.10
2019-04-29T17:21:07.555Z,2.33
2019-04-29T17:26:12.601Z,3.40
2019-04-29T17:31:32.887Z,2.60
2019-04-29T17:36:38.027Z,2.40
2019-04-29T17:41:42.053Z,2.60
2019-04-29T17:46:56.471Z,2.70
2019-04-29T17:52:03.024Z,3.13
2019-04-29T17:57:31.124Z,3.10
2019-04-29T18:02:42.708Z,3.63
2019-04-29T18:07:52.822Z,3.93
2019-04-29T18:12:57.617Z,3.80
2019-04-29T18:18:07.243Z,3.77
2019-04-29T18:23:27.838Z,5.40
2019-04-29T18:28:33.312Z,3.97
2019-04-29T18:33:38.020Z,5.50
2019-04-29T18:38:42.394Z,4.73
2019-04-29T18:43:48.547Z,5.27
2019-04-29T18:48:55.940Z,5.30
2019-04-29T18:54:00.200Z,5.23
2019-04-29T18:59:04.490Z,6.50
2019-04-29T19:04:19.225Z,6.87
2019-04-29T19:09:26.852Z,7.63
2019-04-29T19:14:31.651Z,7.67
2019-04-29T19:19:39.283Z,7.90
2019-04-29T19:24:44.152Z,8.17
2019-04-29T19:29:48.565Z,7.40
2019-04-29T19:34:56.833Z,7.20
2019-04-29T19:40:00.182Z,7.67
2019-04-29T19:45:06.271Z,7.70
2019-04-29T19:50:18.289Z,7.10
2019-04-29T19:55:20.482Z,8.17
2019-04-29T20:00:29.462Z,8.73
2019-04-29T20:05:46.110Z,9.43
2019-04-29T20:10:51.846Z,7.27
2019-04-29T20:16:25.023Z,8.17
2019-04-29T20:21:29.669Z,7.83
2019-04-29T20:26:35.760Z,9.43
2019-04-29T20:31:48.715Z,7.70
2019-04-29T20:36:46.672Z,8.47
2019-04-29T20:41:51.113Z,7.13
2019-04-29T20:47:14.246Z,6.00
2019-04-29T20:52:25.910Z,6.40
2019-04-29T20:57:35.452Z,6.80
2019-04-29T21:02:38.195Z,6.77
2019-04-29T21:07:42.325Z,6.27
2019-04-29T21:12:59.432Z,8.40
2019-04-29T21:18:05.408Z,7.27
2019-04-29T21:23:09.760Z,7.13
2019-04-29T21:28:14.347Z,7.93
2019-04-29T21:33:21.463Z,7.53
2019-04-29T21:38:42.479Z,7.10
2019-04-29T21:43:53.408Z,7.87
2019-04-29T21:48:55.591Z,8.17
2019-04-29T21:54:00.382Z,7.63
2019-04-29T21:59:09.240Z,8.50
2019-04-29T22:04:11.926Z,9.37
2019-04-29T22:09:18.252Z,7.33
2019-04-29T22:14:22.825Z,8.20
2019-04-29T22:19:28.171Z,9.77
2019-04-29T22:24:33.524Z,9.13
2019-04-29T22:29:39.333Z,9.73
2019-04-29T22:34:45.185Z,10.93
2019-04-29T22:39:50.061Z,11.07
2019-04-29T22:44:57.333Z,10.07
2019-04-29T22:50:03.199Z,9.70
2019-04-29T22:55:08.829Z,13.93
2019-04-29T23:00:17.495Z,11.20
2019-04-29T23:05:23.518Z,10.30
2019-04-29T23:10:28.373Z,10.07
2019-04-29T23:15:35.547Z,9.77
2019-04-29T23:20:59.606Z,10.67
2019-04-29T23:26:05.594Z,10.27
2019-04-29T23:31:10.240Z,11.47
2019-04-29T23:36:15.961Z,11.13
2019-04-29T23:41:27.703Z,9.80
2019-04-29T23:46:29.748Z,9.10
2019-04-29T23:51:37.732Z,10.83
2019-04-29T23:57:00.481Z,11.23
